Time;durP1;ratioP1;P1;durP2;ratioP2;P2;SDS_P1;SDS_P2;PMS_P1;PMS_P2;Temp;Humidity;BMP_temperature;BMP_pressure;BME280_temperature;BME280_humidity;BME280_pressure;Samples;Min_cycle;Max_cycle;Signal;HPM_P1;HPM_P2
2024/01/01 00:00:09;;;;;;;24.20;6.25;;;7.70;95.60;;;;;;5057211;28;20111;-76
2024/01/01 00:02:35;;;;;;;21.30;6.18;;;7.70;95.80;;;;;;5055610;28;20106;-76
2024/01/01 00:05:00;;;;;;;25.08;7.13;;;7.70;95.90;;;;;;5058580;28;20115;-76
2024/01/01 00:07:26;;;;;;;21.30;6.38;;;7.60;96.00;;;;;;5053540;28;20039;-75
2024/01/01 00:09:52;;;;;;;17.50;6.55;;;7.60;96.00;;;;;;5036492;28;20012;-76
2024/01/01 00:12:17;;;;;;;24.75;7.05;;;7.60;96.00;;;;;;5041358;28;20085;-77
2024/01/01 00:14:43;;;;;;;20.50;6.95;;;7.60;96.10;;;;;;5055363;28;20097;-75
2024/01/01 00:17:08;;;;;;;23.98;6.18;;;7.60;96.30;;;;;;5041004;28;20468;-76
2024/01/01 00:19:34;;;;;;;19.50;6.07;;;7.60;96.40;;;;;;5038355;28;20486;-76
2024/01/01 00:22:02;;;;;;;21.05;6.00;;;7.60;96.50;;;;;;5055333;28;20487;-76
2024/01/01 00:24:28;;;;;;;20.92;6.35;;;7.60;96.60;;;;;;5049328;28;20040;-76
2024/01/01 00:26:53;;;;;;;21.27;6.05;;;7.60;96.60;;;;;;5057728;28;20029;-76
2024/01/01 00:29:19;;;;;;;20.40;6.25;;;7.60;96.60;;;;;;5054800;28;20063;-75
2024/01/01 00:31:45;;;;;;;22.98;5.95;;;7.60;96.50;;;;;;5033889;28;20031;-77
2024/01/01 00:34:10;;;;;;;22.85;6.50;;;7.60;96.50;;;;;;5036760;28;20060;-76
2024/01/01 00:36:36;;;;;;;18.35;5.18;;;7.60;96.60;;;;;;5056726;28;20017;-76
2024/01/01 00:39:02;;;;;;;17.02;5.13;;;7.60;96.60;;;;;;5052820;28;20040;-76
2024/01/01 00:41:28;;;;;;;19.48;5.30;;;7.70;96.60;;;;;;5040392;28;20020;-76
2024/01/01 00:43:53;;;;;;;24.90;5.85;;;7.60;96.60;;;;;;5038699;28;20035;-76
2024/01/01 00:46:19;;;;;;;23.65;5.80;;;7.60;96.60;;;;;;5055843;28;20029;-75
2024/01/01 00:48:45;;;;;;;22.45;5.85;;;7.70;96.60;;;;;;5052651;28;20029;-76
2024/01/01 00:51:10;;;;;;;18.73;6.03;;;7.70;96.70;;;;;;5053098;28;20108;-76
2024/01/01 00:53:36;;;;;;;20.00;5.85;;;7.70;96.60;;;;;;5051211;28;20065;-76
2024/01/01 00:56:02;;;;;;;23.60;5.38;;;7.70;96.60;;;;;;5053604;28;20686;-76
2024/01/01 00:58:27;;;;;;;23.83;6.55;;;7.70;96.50;;;;;;5058032;28;20444;-75
2024/01/01 01:00:54;;;;;;;23.65;5.53;;;7.80;96.40;;;;;;5055909;28;20028;-76
2024/01/01 01:03:19;;;;;;;24.15;5.72;;;7.80;96.30;;;;;;5056806;28;20477;-75
2024/01/01 01:05:45;;;;;;;25.40;5.22;;;7.80;96.20;;;;;;5054437;28;20016;-75
2024/01/01 01:08:10;;;;;;;20.55;5.03;;;7.80;96.20;;;;;;5050186;28;20098;-76
2024/01/01 01:10:36;;;;;;;19.90;4.50;;;7.80;96.10;;;;;;5058955;28;20033;-76
2024/01/01 01:13:02;;;;;;;21.60;5.28;;;7.80;96.00;;;;;;5043017;28;20554;-76
2024/01/01 01:15:28;;;;;;;17.85;4.05;;;7.80;95.90;;;;;;5050721;28;20048;-77
2024/01/01 01:17:54;;;;;;;21.05;4.55;;;7.80;95.80;;;;;;5029149;28;20064;-77
2024/01/01 01:20:19;;;;;;;15.73;3.53;;;7.80;95.60;;;;;;5036546;28;20095;-76
2024/01/01 01:22:45;;;;;;;14.10;3.63;;;7.80;95.50;;;;;;5055716;28;20452;-75
2024/01/01 01:25:12;;;;;;;23.52;4.45;;;7.80;95.20;;;;;;5038959;28;20029;-75
2024/01/01 01:27:40;;;;;;;14.15;3.33;;;7.90;94.70;;;;;;5048360;28;21287;-75
2024/01/01 01:30:06;;;;;;;14.57;2.88;;;7.90;94.50;;;;;;5031151;28;20077;-75
2024/01/01 01:32:32;;;;;;;14.88;3.55;;;7.90;94.30;;;;;;5038448;28;20044;-73
2024/01/01 01:34:57;;;;;;;18.35;3.58;;;7.90;94.40;;;;;;5034436;28;20040;-76
2024/01/01 01:37:23;;;;;;;17.45;3.67;;;8.00;94.50;;;;;;5047337;28;20385;-75
2024/01/01 01:39:48;;;;;;;15.57;3.92;;;8.00;94.60;;;;;;5053932;28;20024;-76
2024/01/01 01:42:14;;;;;;;22.13;4.60;;;7.90;94.70;;;;;;5055042;28;20706;-76
2024/01/01 01:44:40;;;;;;;19.25;3.95;;;7.90;94.70;;;;;;5058491;28;20107;-75
2024/01/01 01:47:07;;;;;;;18.60;3.72;;;7.90;94.80;;;;;;5056002;28;20359;-75
2024/01/01 01:49:33;;;;;;;16.67;3.88;;;7.90;95.00;;;;;;5057763;28;20056;-76
2024/01/01 01:52:03;;;;;;;21.17;4.15;;;7.90;95.00;;;;;;5058624;28;20513;-75
2024/01/01 01:54:30;;;;;;;21.65;4.13;;;7.80;95.00;;;;;;5037319;28;20036;-75
2024/01/01 01:56:56;;;;;;;18.05;4.38;;;7.80;95.10;;;;;;5052935;28;20086;-76
2024/01/01 01:59:22;;;;;;;23.42;3.95;;;7.90;95.20;;;;;;5031210;28;20552;-76
2024/01/01 02:01:49;;;;;;;23.70;4.80;;;7.90;95.00;;;;;;5053679;28;20025;-75
2024/01/01 02:04:16;;;;;;;24.50;5.15;;;7.80;94.80;;;;;;5055187;28;20025;-76
2024/01/01 02:06:42;;;;;;;19.35;4.90;;;7.80;94.80;;;;;;5039349;28;20388;-76
2024/01/01 02:09:08;;;;;;;22.90;4.32;;;7.90;94.80;;;;;;5039912;28;20039;-76
2024/01/01 02:11:34;;;;;;;22.52;4.70;;;7.90;94.90;;;;;;5043481;28;20024;-78
2024/01/01 02:14:10;;;;;;;21.90;5.07;;;8.00;94.90;;;;;;5054820;28;20536;-76
2024/01/01 02:16:36;;;;;;;18.92;4.07;;;8.00;94.70;;;;;;5052313;28;20496;-77
2024/01/01 02:19:06;;;;;;;22.25;4.55;;;7.90;94.60;;;;;;5049432;28;20034;-75
2024/01/01 02:21:31;;;;;;;17.52;3.75;;;7.90;94.40;;;;;;5048543;28;20024;-74
2024/01/01 02:23:57;;;;;;;15.35;3.65;;;7.90;94.20;;;;;;5033004;28;20089;-75
2024/01/01 02:26:23;;;;;;;17.00;3.70;;;7.90;94.20;;;;;;5035883;28;20027;-75
2024/01/01 02:28:49;;;;;;;18.02;4.30;;;7.90;94.30;;;;;;5037525;28;20060;-74
2024/01/01 02:31:14;;;;;;;18.95;4.60;;;7.90;94.40;;;;;;5049543;28;20041;-75
2024/01/01 02:33:40;;;;;;;19.25;3.78;;;7.90;94.60;;;;;;5034280;28;20501;-74
2024/01/01 02:36:05;;;;;;;18.73;4.07;;;7.90;94.70;;;;;;5052534;28;20036;-76
2024/01/01 02:38:31;;;;;;;21.25;4.93;;;7.90;94.80;;;;;;5032387;28;20089;-76
2024/01/01 02:40:57;;;;;;;21.42;4.35;;;7.90;94.90;;;;;;5049658;28;20377;-77
2024/01/01 02:43:22;;;;;;;16.80;3.88;;;7.90;94.90;;;;;;5033047;28;20036;-75
2024/01/01 02:45:48;;;;;;;19.85;4.40;;;7.90;95.00;;;;;;5054867;28;20252;-76
2024/01/01 02:48:13;;;;;;;24.73;4.20;;;7.80;95.10;;;;;;5037255;28;20473;-78
2024/01/01 02:50:39;;;;;;;19.35;4.50;;;7.90;95.40;;;;;;5034848;28;20049;-76
2024/01/01 02:53:05;;;;;;;19.55;4.47;;;7.80;95.40;;;;;;5051771;28;20087;-75
2024/01/01 02:55:31;;;;;;;19.40;4.05;;;7.80;95.30;;;;;;5052498;28;20555;-75
2024/01/01 02:57:57;;;;;;;21.75;4.47;;;7.80;95.30;;;;;;5054550;28;20031;-76
2024/01/01 03:00:22;;;;;;;20.73;4.03;;;7.80;95.20;;;;;;5053119;28;20028;-76
2024/01/01 03:02:49;;;;;;;22.30;3.95;;;7.80;95.10;;;;;;5048385;28;20638;-76
2024/01/01 03:05:15;;;;;;;17.75;3.33;;;7.70;95.00;;;;;;5051487;28;20031;-76
2024/01/01 03:07:41;;;;;;;20.73;4.82;;;7.70;95.00;;;;;;5048984;28;20370;-76
2024/01/01 03:10:07;;;;;;;17.73;3.22;;;7.80;94.90;;;;;;5032562;28;20104;-76
2024/01/01 03:12:33;;;;;;;19.13;4.72;;;7.80;94.90;;;;;;5038670;28;20040;-75
2024/01/01 03:15:03;;;;;;;19.85;3.95;;;7.80;95.00;;;;;;5049271;28;20045;-76
2024/01/01 03:17:29;;;;;;;12.57;3.65;;;7.80;95.10;;;;;;5030160;28;20020;-76
2024/01/01 03:19:54;;;;;;;19.90;3.85;;;7.70;95.10;;;;;;5050621;28;20074;-76
2024/01/01 03:22:20;;;;;;;20.33;4.43;;;7.80;95.30;;;;;;5050067;28;20064;-76
2024/01/01 03:24:45;;;;;;;21.40;4.32;;;7.70;95.40;;;;;;5030736;28;20476;-76
2024/01/01 03:27:11;;;;;;;12.75;3.45;;;7.80;95.40;;;;;;5052688;28;20029;-76
2024/01/01 03:29:37;;;;;;;16.25;3.60;;;7.70;95.40;;;;;;5052849;28;20033;-76
2024/01/01 03:32:02;;;;;;;18.00;3.90;;;7.70;95.30;;;;;;5051889;28;20427;-76
2024/01/01 03:34:28;;;;;;;15.88;4.00;;;7.70;95.50;;;;;;5055430;28;20028;-75
2024/01/01 03:36:54;;;;;;;18.83;4.18;;;7.70;95.60;;;;;;5047667;28;20037;-75
2024/01/01 03:39:19;;;;;;;18.75;3.80;;;7.70;95.60;;;;;;5029535;28;20124;-75
2024/01/01 03:41:45;;;;;;;23.98;4.30;;;7.70;95.60;;;;;;5052389;28;20119;-75
2024/01/01 03:44:12;;;;;;;22.30;4.40;;;7.70;95.50;;;;;;5038287;28;20504;-75
2024/01/01 03:46:37;;;;;;;16.92;4.15;;;7.60;95.60;;;;;;5050866;28;20116;-75
2024/01/01 03:49:03;;;;;;;17.67;4.13;;;7.60;95.80;;;;;;5056510;28;20120;-75
2024/01/01 03:51:28;;;;;;;24.52;4.13;;;7.60;95.70;;;;;;5037181;28;20025;-75
2024/01/01 03:53:54;;;;;;;19.08;4.10;;;7.60;95.50;;;;;;5053217;28;20128;-75
2024/01/01 03:56:20;;;;;;;22.27;4.18;;;7.60;95.50;;;;;;5054557;28;20036;-75
2024/01/01 03:58:45;;;;;;;20.17;3.75;;;7.60;95.50;;;;;;5052493;28;20029;-75
2024/01/01 04:01:15;;;;;;;16.63;3.55;;;7.60;95.40;;;;;;5055918;28;20033;-75
2024/01/01 04:03:41;;;;;;;18.83;4.10;;;7.70;95.30;;;;;;5049282;28;20033;-75
2024/01/01 04:06:08;;;;;;;21.45;4.13;;;7.80;95.20;;;;;;5055177;28;20560;-75
2024/01/01 04:08:34;;;;;;;18.75;3.95;;;7.70;95.20;;;;;;5052475;28;20061;-75
2024/01/01 04:10:59;;;;;;;14.07;2.97;;;7.70;95.30;;;;;;5054356;28;20124;-76
2024/01/01 04:13:25;;;;;;;21.35;4.53;;;7.70;95.30;;;;;;5050628;28;20017;-76
2024/01/01 04:15:51;;;;;;;16.67;3.88;;;7.80;95.40;;;;;;5054344;28;20044;-76
2024/01/01 04:18:17;;;;;;;18.63;4.10;;;7.70;95.40;;;;;;5033229;28;20484;-76
2024/01/01 04:20:42;;;;;;;16.67;3.83;;;7.70;95.40;;;;;;5059589;28;20043;-76
2024/01/01 04:23:08;;;;;;;18.23;3.78;;;7.60;95.40;;;;;;5060985;28;20036;-76
2024/01/01 04:25:34;;;;;;;19.50;3.20;;;7.70;95.40;;;;;;5076232;28;20028;-75
2024/01/01 04:27:59;;;;;;;13.88;3.25;;;7.60;95.40;;;;;;5076580;28;20044;-76
2024/01/01 04:30:25;;;;;;;13.57;3.35;;;7.70;95.40;;;;;;5038947;28;20436;-75
2024/01/01 04:32:51;;;;;;;14.00;3.42;;;7.60;95.20;;;;;;5055856;28;20123;-77
2024/01/01 04:35:16;;;;;;;16.40;3.03;;;7.60;95.10;;;;;;5055804;28;20032;-74
2024/01/01 04:37:42;;;;;;;15.43;3.10;;;7.60;95.00;;;;;;5054815;28;20091;-77
2024/01/01 04:40:07;;;;;;;10.57;3.25;;;7.60;95.00;;;;;;5034325;28;20112;-76
2024/01/01 04:42:33;;;;;;;11.07;3.22;;;7.60;94.90;;;;;;5052270;28;20025;-76
2024/01/01 04:44:59;;;;;;;15.93;3.22;;;7.60;94.90;;;;;;5038774;28;20037;-74
2024/01/01 04:47:24;;;;;;;15.43;3.17;;;7.60;94.90;;;;;;5039509;28;20116;-76
2024/01/01 04:49:50;;;;;;;14.75;2.85;;;7.50;95.00;;;;;;5056263;28;20350;-77
2024/01/01 04:52:16;;;;;;;13.73;2.70;;;7.50;95.10;;;;;;5054293;28;20033;-76
2024/01/01 04:54:41;;;;;;;13.13;3.05;;;7.50;95.20;;;;;;5055654;28;20042;-76
2024/01/01 04:57:07;;;;;;;13.55;3.25;;;7.50;95.30;;;;;;5053564;28;20367;-77
2024/01/01 04:59:32;;;;;;;15.02;3.45;;;7.50;95.40;;;;;;5033460;28;20037;-77
2024/01/01 05:01:58;;;;;;;14.75;3.88;;;7.50;95.40;;;;;;5054804;28;20482;-77
2024/01/01 05:04:24;;;;;;;11.98;2.95;;;7.60;95.40;;;;;;5054290;28;21127;-76
2024/01/01 05:06:49;;;;;;;13.50;2.60;;;7.60;95.30;;;;;;5052515;28;20033;-75
2024/01/01 05:09:15;;;;;;;16.02;3.05;;;7.60;95.30;;;;;;5037596;28;20041;-76
2024/01/01 05:11:41;;;;;;;14.55;3.33;;;7.60;95.20;;;;;;5038739;28;20039;-76
2024/01/01 05:14:07;;;;;;;14.70;3.60;;;7.70;95.30;;;;;;5055063;28;20076;-76
2024/01/01 05:16:34;;;;;;;12.35;2.83;;;7.70;95.20;;;;;;5051878;28;20161;-75
2024/01/01 05:19:01;;;;;;;16.10;3.80;;;7.60;95.30;;;;;;5054956;28;20033;-75
2024/01/01 05:21:27;;;;;;;17.73;3.45;;;7.70;95.30;;;;;;5056297;28;20041;-78
2024/01/01 05:23:52;;;;;;;16.77;3.55;;;7.70;95.40;;;;;;5054572;28;20508;-77
2024/01/01 05:26:18;;;;;;;14.07;3.15;;;7.70;95.30;;;;;;5049541;28;20044;-75
2024/01/01 05:28:44;;;;;;;15.45;3.22;;;7.70;95.30;;;;;;5053133;28;20028;-76
2024/01/01 05:31:09;;;;;;;14.60;3.30;;;7.70;95.30;;;;;;5051210;28;20036;-76
2024/01/01 05:33:36;;;;;;;16.88;4.85;;;7.60;95.20;;;;;;5051860;28;20067;-76
2024/01/01 05:36:02;;;;;;;17.27;3.15;;;7.60;95.30;;;;;;5054979;28;20047;-76
2024/01/01 05:38:28;;;;;;;17.10;3.72;;;7.60;95.30;;;;;;5054795;28;20029;-76
2024/01/01 05:40:54;;;;;;;18.25;3.55;;;7.60;95.40;;;;;;5034328;28;20040;-75
2024/01/01 05:43:21;;;;;;;16.98;4.32;;;7.60;95.50;;;;;;5048986;28;20461;-76
2024/01/01 05:45:47;;;;;;;17.20;3.75;;;7.60;95.60;;;;;;5049854;28;20438;-77
2024/01/01 05:48:13;;;;;;;20.05;3.72;;;7.60;95.50;;;;;;5055276;28;20025;-77
2024/01/01 05:50:39;;;;;;;20.00;4.35;;;7.70;95.50;;;;;;5053787;28;20046;-76
2024/01/01 05:53:06;;;;;;;18.30;4.53;;;7.70;95.50;;;;;;5055315;28;20508;-76
2024/01/01 05:55:33;;;;;;;17.90;4.43;;;7.60;95.60;;;;;;5051079;28;20270;-77
2024/01/01 05:57:58;;;;;;;16.90;3.55;;;7.60;95.60;;;;;;5055887;28;20024;-76
2024/01/01 06:00:26;;;;;;;20.15;3.60;;;7.70;95.60;;;;;;5050030;28;20551;-76
2024/01/01 06:02:51;;;;;;;17.55;4.15;;;7.70;95.60;;;;;;5055861;28;20035;-77
2024/01/01 06:05:17;;;;;;;13.15;4.15;;;7.70;95.50;;;;;;5038732;28;20020;-77
2024/01/01 06:07:43;;;;;;;22.65;4.07;;;7.70;95.50;;;;;;5054357;28;20052;-76
2024/01/01 06:10:09;;;;;;;16.58;4.18;;;7.70;95.40;;;;;;5054084;28;20031;-77
2024/01/01 06:12:34;;;;;;;20.15;4.53;;;7.80;95.40;;;;;;5054184;28;20025;-76
2024/01/01 06:15:00;;;;;;;15.63;3.47;;;7.80;95.30;;;;;;5052190;28;20064;-77
2024/01/01 06:17:25;;;;;;;14.00;3.28;;;7.80;95.10;;;;;;5036903;28;20055;-76
2024/01/01 06:19:51;;;;;;;18.58;4.30;;;7.90;95.10;;;;;;5055278;28;20261;-76
2024/01/01 06:22:17;;;;;;;17.65;3.88;;;7.80;95.00;;;;;;5054982;28;20372;-77
2024/01/01 06:24:42;;;;;;;18.13;3.25;;;7.80;94.90;;;;;;5038055;28;20127;-76
2024/01/01 06:27:08;;;;;;;18.17;3.67;;;7.90;94.90;;;;;;5052160;28;20021;-76
2024/01/01 06:29:36;;;;;;;12.60;3.42;;;7.90;94.80;;;;;;5024377;28;20040;-76
2024/01/01 06:32:01;;;;;;;18.13;3.85;;;7.80;94.80;;;;;;5050602;28;20446;-76
2024/01/01 06:34:27;;;;;;;14.55;3.30;;;7.80;94.80;;;;;;5053020;28;20045;-76
2024/01/01 06:36:53;;;;;;;14.90;4.13;;;7.90;94.70;;;;;;5051224;28;20035;-76
2024/01/01 06:39:20;;;;;;;15.43;3.72;;;7.90;94.60;;;;;;5034499;28;20429;-76
2024/01/01 06:41:45;;;;;;;17.45;3.53;;;7.90;94.70;;;;;;5052078;28;20025;-76
2024/01/01 06:44:11;;;;;;;17.10;4.38;;;7.90;94.70;;;;;;5052805;28;20392;-76
2024/01/01 06:46:36;;;;;;;13.93;3.63;;;7.90;94.70;;;;;;5047802;28;20078;-76
2024/01/01 06:49:02;;;;;;;14.57;3.45;;;7.90;94.60;;;;;;5054653;28;20044;-75
2024/01/01 06:51:28;;;;;;;21.75;4.15;;;7.90;94.50;;;;;;5053261;28;20021;-76
2024/01/01 06:53:53;;;;;;;17.02;4.13;;;7.90;94.40;;;;;;5037056;28;20041;-77
2024/01/01 06:56:19;;;;;;;15.27;3.67;;;7.90;94.50;;;;;;5053080;28;20039;-75
2024/01/01 06:58:44;;;;;;;15.05;4.13;;;7.90;94.50;;;;;;5048960;28;20568;-76
2024/01/01 07:01:10;;;;;;;18.60;3.20;;;7.90;94.60;;;;;;5052910;28;20062;-76
2024/01/01 07:03:36;;;;;;;17.77;4.03;;;8.00;94.60;;;;;;5054307;28;20408;-77
2024/01/01 07:06:01;;;;;;;12.70;4.03;;;7.90;94.70;;;;;;5049665;28;20028;-76
2024/01/01 07:08:27;;;;;;;15.63;3.45;;;8.00;94.70;;;;;;5049295;28;20033;-74
2024/01/01 07:10:53;;;;;;;15.82;3.35;;;7.90;94.80;;;;;;5046351;28;20520;-74
2024/01/01 07:13:19;;;;;;;18.20;3.95;;;7.90;94.80;;;;;;5034560;28;20041;-77
2024/01/01 07:15:44;;;;;;;17.80;3.47;;;7.90;94.90;;;;;;5053059;28;20303;-75
2024/01/01 07:18:10;;;;;;;21.15;4.35;;;7.90;94.90;;;;;;5050545;28;20054;-77
2024/01/01 07:20:35;;;;;;;21.50;4.07;;;7.90;94.90;;;;;;5046816;28;20392;-75
2024/01/01 07:23:01;;;;;;;15.25;3.72;;;7.90;94.90;;;;;;5048664;28;20048;-74
2024/01/01 07:25:27;;;;;;;19.70;3.42;;;7.90;94.80;;;;;;5051126;28;20028;-77
2024/01/01 07:27:53;;;;;;;18.85;3.85;;;7.90;94.70;;;;;;5050235;28;20419;-76
2024/01/01 07:30:19;;;;;;;18.77;3.45;;;7.90;94.60;;;;;;5054035;28;20013;-76
2024/01/01 07:32:45;;;;;;;13.43;3.97;;;8.00;94.40;;;;;;5053950;28;20044;-74
2024/01/01 07:35:11;;;;;;;18.40;3.50;;;7.90;94.40;;;;;;5048710;28;20124;-75
2024/01/01 07:37:37;;;;;;;16.50;4.00;;;8.00;94.20;;;;;;5053023;28;20026;-74
2024/01/01 07:40:03;;;;;;;15.23;3.22;;;8.00;94.10;;;;;;5032325;28;20074;-74
2024/01/01 07:42:29;;;;;;;22.80;4.10;;;8.00;94.00;;;;;;5036570;28;20040;-77
2024/01/01 07:44:54;;;;;;;14.95;3.45;;;8.00;94.00;;;;;;5036521;28;20025;-73
2024/01/01 07:47:20;;;;;;;16.73;3.70;;;8.00;94.10;;;;;;5055505;28;20170;-77
2024/01/01 07:49:46;;;;;;;19.52;3.53;;;8.00;94.00;;;;;;5051051;28;20023;-76
2024/01/01 07:52:12;;;;;;;15.45;3.35;;;8.00;94.00;;;;;;5058869;28;20522;-75
2024/01/01 07:54:39;;;;;;;16.83;4.18;;;8.00;93.90;;;;;;5038960;28;20119;-77
2024/01/01 07:57:06;;;;;;;17.10;3.92;;;8.00;93.80;;;;;;5059214;28;20028;-76
2024/01/01 07:59:32;;;;;;;18.35;3.95;;;8.00;93.80;;;;;;5039028;28;20124;-76
2024/01/01 08:01:58;;;;;;;16.27;3.97;;;8.00;93.80;;;;;;5038703;28;20077;-75
2024/01/01 08:04:24;;;;;;;19.58;4.68;;;8.00;93.90;;;;;;5058110;28;21390;-76
2024/01/01 08:06:49;;;;;;;17.63;3.75;;;8.00;94.00;;;;;;5060802;28;20100;-74
2024/01/01 08:09:15;;;;;;;15.80;3.97;;;8.00;94.10;;;;;;5075911;28;20040;-76
2024/01/01 08:11:40;;;;;;;23.45;4.78;;;8.00;94.10;;;;;;5056893;28;20042;-75
2024/01/01 08:14:06;;;;;;;17.55;4.22;;;7.90;94.20;;;;;;5055814;28;20040;-74
2024/01/01 08:16:34;;;;;;;20.65;4.13;;;7.90;94.20;;;;;;5070478;28;20040;-74
2024/01/01 08:18:59;;;;;;;17.17;4.03;;;7.90;94.20;;;;;;5072546;28;20041;-76
2024/01/01 08:21:25;;;;;;;16.90;4.55;;;7.90;94.20;;;;;;5050249;28;20124;-75
2024/01/01 08:23:51;;;;;;;18.63;5.50;;;7.80;94.20;;;;;;5077202;28;20031;-77
2024/01/01 08:26:16;;;;;;;16.25;4.88;;;7.80;94.20;;;;;;5075217;28;20024;-75
2024/01/01 08:28:42;;;;;;;21.25;4.85;;;7.80;94.30;;;;;;5070949;28;20024;-75
2024/01/01 08:31:08;;;;;;;13.75;3.67;;;7.70;94.40;;;;;;5068831;28;20044;-75
2024/01/01 08:33:33;;;;;;;17.90;4.65;;;7.80;94.50;;;;;;5042205;28;20475;-77
2024/01/01 08:35:59;;;;;;;21.33;4.65;;;7.80;94.50;;;;;;5032659;28;20021;-78
2024/01/01 08:38:25;;;;;;;21.20;4.78;;;7.80;94.50;;;;;;5032925;28;20029;-74
2024/01/01 08:40:51;;;;;;;19.38;5.05;;;7.80;94.50;;;;;;5058321;28;20021;-77
2024/01/01 08:43:17;;;;;;;17.95;4.70;;;7.90;94.50;;;;;;5053882;28;20051;-76
2024/01/01 08:45:42;;;;;;;23.25;5.18;;;7.90;94.20;;;;;;5052917;28;20020;-76
2024/01/01 08:48:08;;;;;;;20.90;4.82;;;7.90;94.10;;;;;;5055207;28;20082;-76
2024/01/01 08:50:33;;;;;;;19.48;5.13;;;8.00;94.00;;;;;;5038786;28;20121;-77
2024/01/01 08:52:59;;;;;;;21.10;6.18;;;8.00;93.90;;;;;;5038701;28;20028;-77
2024/01/01 08:55:25;;;;;;;23.13;6.28;;;8.00;94.00;;;;;;5040771;28;20023;-76
2024/01/01 08:57:51;;;;;;;29.05;6.47;;;8.00;93.80;;;;;;5054492;28;20269;-76
2024/01/01 09:00:17;;;;;;;22.23;5.13;;;8.10;93.70;;;;;;5037237;28;20052;-75
2024/01/01 09:02:43;;;;;;;20.38;5.47;;;8.10;93.70;;;;;;5048372;28;20041;-76
2024/01/01 09:05:08;;;;;;;18.85;5.10;;;8.10;93.50;;;;;;5057829;28;20338;-76
2024/01/01 09:07:35;;;;;;;18.95;4.80;;;8.10;93.50;;;;;;5039719;28;20033;-76
2024/01/01 09:10:02;;;;;;;23.98;5.07;;;8.10;93.30;;;;;;5039005;28;20321;-76
2024/01/01 09:12:30;;;;;;;22.20;6.88;;;8.10;93.20;;;;;;5053824;28;20629;-77
2024/01/01 09:14:56;;;;;;;25.00;4.95;;;8.00;93.50;;;;;;5040071;28;20036;-76
2024/01/01 09:17:22;;;;;;;23.35;4.78;;;7.90;93.40;;;;;;5036840;28;20611;-75
2024/01/01 09:19:48;;;;;;;16.40;5.18;;;7.90;93.70;;;;;;5051278;28;20031;-77
2024/01/01 09:22:14;;;;;;;20.92;4.80;;;7.90;93.70;;;;;;5033690;28;20025;-75
2024/01/01 09:24:41;;;;;;;16.55;4.53;;;8.00;93.80;;;;;;5052368;28;20039;-75
2024/01/01 09:27:07;;;;;;;22.73;4.78;;;8.00;93.90;;;;;;5057143;28;20771;-75
2024/01/01 09:29:32;;;;;;;21.10;5.50;;;7.90;93.90;;;;;;5075115;28;20043;-75
2024/01/01 09:31:58;;;;;;;20.30;5.00;;;8.00;93.90;;;;;;5080560;28;20027;-76
2024/01/01 09:34:23;;;;;;;21.65;5.15;;;8.00;93.80;;;;;;5061401;28;20044;-74
2024/01/01 09:36:49;;;;;;;22.13;5.30;;;8.10;94.00;;;;;;5075997;28;20055;-76
2024/01/01 09:39:15;;;;;;;21.88;5.75;;;8.10;93.80;;;;;;5054897;28;20029;-76
2024/01/01 09:41:40;;;;;;;24.92;5.53;;;8.20;93.60;;;;;;5056273;28;20205;-76
2024/01/01 09:44:08;;;;;;;22.98;5.25;;;8.30;93.40;;;;;;5035316;28;20029;-75
2024/01/01 09:46:34;;;;;;;23.80;5.65;;;8.40;93.40;;;;;;5047152;28;20060;-76
2024/01/01 09:49:02;;;;;;;23.10;5.43;;;8.40;93.30;;;;;;5054441;28;20020;-75
2024/01/01 09:51:27;;;;;;;27.75;6.70;;;8.50;93.20;;;;;;5055444;28;20017;-75
2024/01/01 09:53:53;;;;;;;28.80;6.00;;;8.60;93.10;;;;;;5047196;28;20048;-75
2024/01/01 09:56:20;;;;;;;27.73;5.53;;;8.70;92.80;;;;;;5048987;28;20070;-75
2024/01/01 09:58:45;;;;;;;23.90;5.65;;;8.90;92.50;;;;;;5050108;28;20067;-77
2024/01/01 10:01:19;;;;;;;19.25;4.97;;;9.00;92.20;;;;;;5039267;28;20408;-77
2024/01/01 10:04:03;;;;;;;23.10;5.70;;;9.10;91.60;;;;;;5034984;28;20476;-75
2024/01/01 10:06:30;;;;;;;27.70;5.68;;;9.30;91.20;;;;;;5053628;28;20489;-75
2024/01/01 10:09:22;;;;;;;20.77;5.38;;;9.40;90.80;;;;;;5051149;28;20029;-75
2024/01/01 10:11:47;;;;;;;28.83;5.38;;;9.60;90.90;;;;;;5039572;28;20033;-75
2024/01/01 10:14:13;;;;;;;32.03;8.35;;;9.60;89.90;;;;;;5051049;28;20025;-75
2024/01/01 10:16:39;;;;;;;29.27;7.03;;;9.60;89.60;;;;;;5047324;28;20310;-75
2024/01/01 10:19:05;;;;;;;25.45;6.28;;;9.50;89.40;;;;;;5052093;28;20620;-76
2024/01/01 10:21:40;;;;;;;25.90;6.32;;;9.60;89.30;;;;;;5048011;28;20059;-76
2024/01/01 10:24:17;;;;;;;27.45;7.25;;;9.70;89.20;;;;;;5047729;28;20032;-76
2024/01/01 10:26:47;;;;;;;26.65;6.65;;;9.80;88.80;;;;;;5047029;28;20021;-77
2024/01/01 10:29:14;;;;;;;29.38;11.10;;;9.90;88.80;;;;;;5037599;28;20040;-75
2024/01/01 10:31:48;;;;;;;23.98;6.90;;;10.10;88.40;;;;;;5034802;28;20048;-75
2024/01/01 10:34:15;;;;;;;24.47;6.77;;;10.10;88.00;;;;;;5056177;28;20141;-77
2024/01/01 10:36:44;;;;;;;27.70;6.85;;;10.20;87.30;;;;;;5050279;28;20027;-75
2024/01/01 10:39:11;;;;;;;27.50;5.68;;;10.10;87.00;;;;;;5046959;28;20174;-75
2024/01/01 10:41:39;;;;;;;23.15;5.13;;;10.10;86.70;;;;;;5048354;28;20025;-76
2024/01/01 10:44:09;;;;;;;24.55;5.13;;;10.10;86.50;;;;;;5047951;28;20060;-75
2024/01/01 10:46:44;;;;;;;26.10;5.55;;;10.10;86.30;;;;;;5047658;28;20020;-75
2024/01/01 10:49:16;;;;;;;28.40;10.65;;;10.10;86.10;;;;;;5050536;28;20117;-76
2024/01/01 10:52:00;;;;;;;20.73;6.10;;;10.10;86.20;;;;;;5051668;28;20028;-76
2024/01/01 10:54:41;;;;;;;33.03;14.32;;;10.10;86.00;;;;;;5052967;28;20029;-75
2024/01/01 10:57:38;;;;;;;18.85;5.53;;;10.00;86.40;;;;;;5034508;28;20035;-74
2024/01/01 11:00:32;;;;;;;28.20;8.32;;;9.90;86.20;;;;;;5045532;28;20043;-77
2024/01/01 11:02:58;;;;;;;21.83;6.40;;;10.00;86.30;;;;;;5052490;28;20068;-77
2024/01/01 11:05:34;;;;;;;23.80;6.07;;;10.00;86.20;;;;;;5055280;28;20104;-77
2024/01/01 11:08:02;;;;;;;26.48;9.30;;;10.00;86.20;;;;;;5051793;28;20120;-77
2024/01/01 11:10:40;;;;;;;19.80;5.97;;;10.00;86.10;;;;;;5037555;28;20613;-76
2024/01/01 11:13:11;;;;;;;20.23;4.00;;;10.00;85.70;;;;;;5033496;28;20111;-76
2024/01/01 11:15:41;;;;;;;20.70;5.50;;;10.00;85.20;;;;;;5050599;28;20052;-76
2024/01/01 11:18:11;;;;;;;20.40;4.78;;;10.10;85.10;;;;;;5048136;28;20033;-76
2024/01/01 11:20:56;;;;;;;23.13;5.78;;;10.10;84.90;;;;;;5036971;28;20054;-77
2024/01/01 11:23:44;;;;;;;24.02;5.38;;;10.00;84.60;;;;;;5048449;28;20352;-75
2024/01/01 11:26:22;;;;;;;19.77;4.82;;;9.90;84.80;;;;;;5036255;28;20740;-77
2024/01/01 11:28:51;;;;;;;19.45;4.65;;;9.90;85.10;;;;;;5039522;28;20366;-76
2024/01/01 11:31:17;;;;;;;20.25;4.70;;;9.80;85.30;;;;;;5053573;28;20013;-76
2024/01/01 11:33:43;;;;;;;18.33;4.63;;;9.80;85.80;;;;;;5057364;28;20044;-73
2024/01/01 11:36:11;;;;;;;24.38;6.43;;;9.90;85.70;;;;;;5041184;28;20020;-77
2024/01/01 11:38:38;;;;;;;19.48;5.43;;;9.90;86.00;;;;;;5054209;28;20032;-77
2024/01/01 11:41:04;;;;;;;25.13;7.47;;;9.80;86.60;;;;;;5049731;28;20029;-76
2024/01/01 11:43:30;;;;;;;29.23;6.95;;;9.90;87.00;;;;;;5054507;28;20040;-77
2024/01/01 11:45:57;;;;;;;26.38;6.55;;;9.90;87.00;;;;;;5034812;28;20016;-76
2024/01/01 11:48:24;;;;;;;25.70;7.50;;;10.00;87.20;;;;;;5055730;28;20044;-75
2024/01/01 11:50:50;;;;;;;24.90;5.97;;;10.00;87.20;;;;;;5058591;28;20606;-74
2024/01/01 11:53:16;;;;;;;26.65;7.25;;;10.00;87.40;;;;;;5056405;28;20090;-76
2024/01/01 11:55:41;;;;;;;26.50;6.57;;;9.90;87.80;;;;;;5052293;28;20093;-74
2024/01/01 11:58:08;;;;;;;23.35;5.82;;;9.90;87.90;;;;;;5052744;28;20033;-73
2024/01/01 12:00:35;;;;;;;29.38;6.80;;;9.90;88.10;;;;;;5053634;28;20047;-74
2024/01/01 12:03:03;;;;;;;23.20;6.75;;;9.80;88.40;;;;;;5056437;28;20125;-74
2024/01/01 12:05:29;;;;;;;26.85;6.97;;;9.80;88.20;;;;;;5054539;28;20013;-75
2024/01/01 12:07:54;;;;;;;19.50;6.32;;;9.90;88.30;;;;;;5038876;28;20488;-75
2024/01/01 12:10:20;;;;;;;26.25;6.78;;;9.80;88.40;;;;;;5055769;28;20024;-76
2024/01/01 12:12:47;;;;;;;30.45;8.27;;;9.80;88.50;;;;;;5038634;28;20036;-75
2024/01/01 12:15:19;;;;;;;20.95;5.95;;;9.70;88.50;;;;;;5053364;28;20051;-75
2024/01/01 12:17:46;;;;;;;23.15;5.90;;;9.60;88.70;;;;;;5036382;28;20147;-76
2024/01/01 12:20:16;;;;;;;22.92;5.68;;;9.70;88.60;;;;;;5059098;28;20017;-74
2024/01/01 12:22:42;;;;;;;24.75;6.25;;;9.70;88.70;;;;;;5054619;28;20035;-75
2024/01/01 12:25:18;;;;;;;23.10;6.13;;;9.70;88.60;;;;;;5039295;28;20024;-78
2024/01/01 12:28:00;;;;;;;23.02;5.25;;;9.70;88.90;;;;;;5052814;28;20044;-76
2024/01/01 12:30:27;;;;;;;23.58;5.93;;;9.80;88.50;;;;;;5040586;28;20028;-76
2024/01/01 12:32:56;;;;;;;18.55;5.05;;;9.80;88.30;;;;;;5055224;28;20313;-76
2024/01/01 12:35:22;;;;;;;22.00;4.60;;;9.90;88.10;;;;;;5053541;28;20040;-76
2024/01/01 12:37:48;;;;;;;18.95;4.20;;;10.00;87.90;;;;;;5033358;28;20255;-76
2024/01/01 12:40:15;;;;;;;18.85;4.40;;;10.00;87.70;;;;;;5048779;28;20521;-74
2024/01/01 12:42:41;;;;;;;18.02;4.70;;;10.00;87.50;;;;;;5056807;28;20033;-75